Time;durP1;ratioP1;P1;durP2;ratioP2;P2;SDS_P1;SDS_P2;PMS_P1;PMS_P2;Temp;Humidity;BMP_temperature;BMP_pressure;BME280_temperature;BME280_humidity;BME280_pressure;Samples;Min_cycle;Max_cycle;Signal;HPM_P1;HPM_P2
2022/02/09 00:00:07;;;;;;;108.00;27.48;;;7.60;85.70;;;;;;6238430;23;20078;-61
2022/02/09 00:02:46;;;;;;;116.05;26.58;;;7.60;85.30;;;;;;6211581;23;20012;-63
2022/02/09 00:07:49;;;;;;;125.38;27.58;;;7.60;85.50;;;;;;6213259;23;20004;-62
2022/02/09 00:10:15;;;;;;;117.75;27.02;;;7.60;85.60;;;;;;6214443;23;20319;-61
2022/02/09 00:13:04;;;;;;;96.45;24.63;;;7.50;85.40;;;;;;6238361;23;20313;-63
2022/02/09 00:18:22;;;;;;;81.80;24.73;;;7.50;85.40;;;;;;6213392;23;20373;-63
2022/02/09 01:33:04;;;;;;;64.80;21.77;;;7.10;84.80;;;;;;6239763;23;20374;-62
2022/02/09 01:56:02;;;;;;;53.22;18.27;;;6.80;84.60;;;;;;6236834;23;20095;-60
2022/02/09 01:58:28;;;;;;;63.17;19.08;;;6.80;84.70;;;;;;6185990;23;20008;-63
2022/02/09 02:00:53;;;;;;;46.13;16.67;;;6.80;84.80;;;;;;6212406;23;20004;-62
2022/02/09 02:03:19;;;;;;;47.42;17.15;;;6.80;84.80;;;;;;6213869;23;20462;-63
2022/02/09 02:05:44;;;;;;;46.42;16.55;;;6.70;84.80;;;;;;6163638;23;20012;-62
2022/02/09 02:08:11;;;;;;;42.70;16.67;;;6.70;84.90;;;;;;6212285;23;20480;-63
2022/02/09 02:10:53;;;;;;;57.40;17.58;;;6.70;85.00;;;;;;6239320;23;20057;-63
2022/02/09 02:16:28;;;;;;;54.00;15.73;;;6.70;85.10;;;;;;6197869;23;20008;-61
2022/02/09 02:18:59;;;;;;;43.70;15.63;;;6.60;85.00;;;;;;6213611;23;20070;-60
2022/02/09 02:21:50;;;;;;;48.25;16.30;;;6.60;85.10;;;;;;6188570;23;20030;-61
2022/02/09 02:34:33;;;;;;;40.90;14.75;;;6.60;85.20;;;;;;6212909;23;20008;-62
2022/02/09 02:47:29;;;;;;;48.58;14.43;;;6.50;85.50;;;;;;6193962;23;20019;-63
2022/02/09 03:09:14;;;;;;;45.90;15.25;;;6.40;85.30;;;;;;6240744;23;20053;-63
2022/02/09 03:14:28;;;;;;;37.35;14.65;;;6.30;85.50;;;;;;6238682;23;20012;-62
2022/02/09 03:16:59;;;;;;;48.28;16.30;;;6.30;85.50;;;;;;6238159;23;20008;-61
2022/02/09 03:24:30;;;;;;;34.67;14.00;;;6.30;85.40;;;;;;6241622;23;20000;-62
2022/02/09 03:44:22;;;;;;;31.05;14.88;;;6.20;85.10;;;;;;6215515;23;20322;-61
2022/02/09 03:54:11;;;;;;;34.25;13.57;;;6.10;85.30;;;;;;6238124;23;20385;-63
2022/02/09 03:59:21;;;;;;;34.42;13.18;;;6.00;84.90;;;;;;6217623;23;20441;-63
2022/02/09 04:01:46;;;;;;;30.33;13.23;;;6.00;84.70;;;;;;6240019;23;20001;-61
2022/02/09 04:04:12;;;;;;;28.55;12.85;;;6.00;84.70;;;;;;6213825;23;20015;-63
2022/02/09 04:06:39;;;;;;;20.75;11.43;;;6.00;84.60;;;;;;6211517;23;20103;-63
2022/02/09 04:09:08;;;;;;;26.13;12.20;;;6.00;84.60;;;;;;6237943;23;20058;-62
2022/02/09 04:11:49;;;;;;;31.48;11.98;;;6.00;84.60;;;;;;6239746;23;20004;-63
2022/02/09 04:19:43;;;;;;;24.23;11.55;;;5.90;84.40;;;;;;6211959;23;20008;-62
2022/02/09 04:56:51;;;;;;;21.95;9.57;;;5.70;83.80;;;;;;6216682;23;20487;-63
2022/02/09 04:59:28;;;;;;;28.23;10.27;;;5.70;83.90;;;;;;6238079;23;20004;-63
2022/02/09 05:02:35;;;;;;;23.80;10.27;;;5.60;83.80;;;;;;6237359;23;20500;-61
2022/02/09 05:24:36;;;;;;;23.15;8.98;;;5.60;84.40;;;;;;6215491;23;20007;-62
2022/02/09 05:27:14;;;;;;;20.90;8.98;;;5.60;84.40;;;;;;6236623;23;20012;-62
2022/02/09 05:29:39;;;;;;;22.80;9.20;;;5.60;84.30;;;;;;6238427;23;20000;-63
2022/02/09 05:32:05;;;;;;;18.75;9.05;;;5.60;84.50;;;;;;6239595;23;20044;-63
2022/02/09 05:34:31;;;;;;;17.13;10.63;;;5.60;84.50;;;;;;6212904;23;20109;-64
2022/02/09 05:36:56;;;;;;;19.27;10.27;;;5.60;84.40;;;;;;6237699;23;20008;-61
2022/02/09 05:39:22;;;;;;;16.13;9.25;;;5.50;84.00;;;;;;6210487;23;20035;-63
2022/02/09 05:41:48;;;;;;;19.65;8.75;;;5.50;84.00;;;;;;6185529;23;20398;-61
2022/02/09 05:44:15;;;;;;;16.92;8.75;;;5.50;84.20;;;;;;6188494;23;20028;-63
2022/02/09 05:49:34;;;;;;;21.98;9.35;;;5.50;84.20;;;;;;6213537;23;20079;-62
2022/02/09 05:52:04;;;;;;;19.77;8.85;;;5.50;84.30;;;;;;6237222;23;20000;-63
2022/02/09 05:57:27;;;;;;;26.77;9.52;;;5.40;84.30;;;;;;6216933;23;20016;-62
2022/02/09 05:59:53;;;;;;;22.75;9.63;;;5.40;84.40;;;;;;6215753;23;20073;-61
2022/02/09 06:02:19;;;;;;;23.70;11.82;;;5.40;84.50;;;;;;6237628;23;20248;-63
2022/02/09 06:04:45;;;;;;;31.30;12.52;;;5.40;84.60;;;;;;6237823;23;19996;-62
2022/02/09 06:07:13;;;;;;;26.48;13.65;;;5.40;84.80;;;;;;6209809;23;20328;-63
2022/02/09 06:09:39;;;;;;;27.65;14.68;;;5.30;84.90;;;;;;6189193;23;20373;-61
2022/02/09 06:14:51;;;;;;;31.52;14.30;;;5.30;85.00;;;;;;6239726;23;20020;-61
2022/02/09 06:20:03;;;;;;;27.40;12.35;;;5.30;84.80;;;;;;6237506;23;20015;-61
2022/02/09 06:22:29;;;;;;;24.98;12.98;;;5.30;84.90;;;;;;6239133;23;20004;-63
2022/02/09 06:24:54;;;;;;;25.50;12.68;;;5.20;84.80;;;;;;6212827;23;20559;-61
2022/02/09 06:27:20;;;;;;;22.35;12.60;;;5.30;84.90;;;;;;6209779;23;20290;-62
2022/02/09 06:29:47;;;;;;;21.27;12.80;;;5.30;84.90;;;;;;6210633;23;20051;-63
2022/02/09 06:32:16;;;;;;;24.60;11.82;;;5.20;84.90;;;;;;6206683;23;20027;-62
2022/02/09 06:34:43;;;;;;;25.27;12.38;;;5.20;84.90;;;;;;6211583;23;20068;-62
2022/02/09 06:39:36;;;;;;;24.95;11.07;;;5.20;85.00;;;;;;6236702;23;20009;-64
2022/02/09 06:42:02;;;;;;;21.27;11.00;;;5.10;85.00;;;;;;6238780;23;20038;-62
2022/02/09 06:44:30;;;;;;;24.13;11.07;;;5.10;85.00;;;;;;6211322;23;20063;-62
2022/02/09 06:46:56;;;;;;;23.85;9.82;;;5.10;85.10;;;;;;6208994;23;20112;-64
2022/02/09 06:49:22;;;;;;;18.35;10.65;;;5.10;85.00;;;;;;6212284;23;20137;-63
2022/02/09 06:51:47;;;;;;;21.63;10.60;;;5.10;85.10;;;;;;6212740;23;20000;-62
2022/02/09 06:54:24;;;;;;;17.30;10.43;;;5.10;85.10;;;;;;6186518;23;20034;-63
2022/02/09 07:01:40;;;;;;;17.25;9.20;;;5.10;85.00;;;;;;6238663;23;20393;-63
2022/02/09 07:04:06;;;;;;;20.98;9.10;;;5.00;85.00;;;;;;6239107;23;20083;-62
2022/02/09 07:06:32;;;;;;;18.45;8.60;;;5.00;84.80;;;;;;6212251;23;20083;-63
2022/02/09 07:08:57;;;;;;;19.02;9.88;;;5.00;84.90;;;;;;6209639;23;20000;-64
2022/02/09 07:11:23;;;;;;;20.23;8.95;;;5.00;85.00;;;;;;6208389;23;20027;-61
2022/02/09 07:13:49;;;;;;;15.70;8.10;;;5.00;84.90;;;;;;6237638;23;20087;-62
2022/02/09 07:16:15;;;;;;;20.02;8.20;;;5.10;84.90;;;;;;6187473;23;20361;-61
2022/02/09 07:18:41;;;;;;;17.77;8.10;;;5.00;84.80;;;;;;6239880;23;20032;-62
2022/02/09 07:21:12;;;;;;;16.70;8.88;;;5.00;84.80;;;;;;6161929;23;20101;-64
2022/02/09 07:23:50;;;;;;;14.60;8.27;;;5.00;84.70;;;;;;6187166;23;20003;-63
2022/02/09 07:27:22;;;;;;;19.25;7.78;;;5.00;84.70;;;;;;6238625;23;20058;-61
2022/02/09 07:29:05;;;;;;;15.13;7.88;;;5.00;84.70;;;;;;6230302;23;20020;-61
2022/02/09 07:31:30;;;;;;;14.45;8.05;;;5.00;84.80;;;;;;6210731;23;20008;-63
2022/02/09 07:33:56;;;;;;;16.23;8.93;;;4.90;84.70;;;;;;6236652;23;20007;-61
2022/02/09 07:36:21;;;;;;;15.20;7.20;;;5.00;84.80;;;;;;6211062;23;20027;-61
2022/02/09 07:38:47;;;;;;;16.27;7.28;;;4.90;84.80;;;;;;6210209;23;20333;-61
2022/02/09 07:41:12;;;;;;;44.00;9.95;;;4.90;85.00;;;;;;6238910;23;20004;-62
2022/02/09 07:49:01;;;;;;;23.88;7.45;;;4.90;85.00;;;;;;6214553;23;20338;-62
2022/02/09 07:51:54;;;;;;;18.38;7.85;;;5.00;85.10;;;;;;6188508;23;20039;-61
2022/02/09 07:54:21;;;;;;;21.25;8.32;;;5.00;85.10;;;;;;6217174;23;19996;-62
2022/02/09 07:56:46;;;;;;;15.65;7.45;;;5.00;85.20;;;;;;6212931;23;19996;-64
2022/02/09 07:59:12;;;;;;;13.85;7.15;;;5.00;85.30;;;;;;6238305;23;20023;-63
2022/02/09 08:01:38;;;;;;;21.73;8.50;;;5.00;85.30;;;;;;6208695;23;20012;-63
2022/02/09 08:04:04;;;;;;;18.80;7.50;;;4.90;85.20;;;;;;6177611;23;20312;-62
2022/02/09 08:06:29;;;;;;;25.70;8.32;;;5.00;85.30;;;;;;6208321;23;20480;-62
2022/02/09 08:08:58;;;;;;;16.65;8.18;;;4.90;85.40;;;;;;6210303;23;20400;-63
2022/02/09 08:11:30;;;;;;;44.22;12.52;;;5.00;85.40;;;;;;6212571;23;20000;-62
2022/02/09 08:27:35;;;;;;;143.65;24.23;;;5.10;86.30;;;;;;6237123;23;20027;-62
2022/02/09 08:30:18;;;;;;;107.15;22.23;;;5.10;87.00;;;;;;6166221;23;20004;-61
2022/02/09 08:32:56;;;;;;;118.43;22.10;;;5.10;86.70;;;;;;6214169;23;20682;-63
2022/02/09 08:35:22;;;;;;;112.38;23.20;;;5.20;87.10;;;;;;6213633;23;20005;-62
2022/02/09 08:37:48;;;;;;;165.40;30.98;;;5.20;87.00;;;;;;6208524;23;20015;-63
2022/02/09 08:40:17;;;;;;;122.95;23.85;;;5.20;87.20;;;;;;6208791;23;20102;-61
2022/02/09 08:42:43;;;;;;;121.05;23.20;;;5.20;87.10;;;;;;6232041;23;20106;-61
2022/02/09 08:45:08;;;;;;;109.90;20.40;;;5.20;87.50;;;;;;6208365;23;20616;-63
2022/02/09 08:47:34;;;;;;;111.20;22.77;;;5.20;87.30;;;;;;6207229;23;20351;-64
2022/02/09 08:50:00;;;;;;;115.95;20.55;;;5.20;87.60;;;;;;6209244;23;20032;-62
2022/02/09 08:52:26;;;;;;;101.57;20.13;;;5.20;87.40;;;;;;6234917;23;20000;-63
2022/02/09 08:54:52;;;;;;;117.18;21.55;;;5.30;87.70;;;;;;6233910;23;20001;-63
2022/02/09 08:57:20;;;;;;;131.60;22.10;;;5.30;87.90;;;;;;6207849;23;20083;-62
2022/02/09 08:59:46;;;;;;;181.27;26.33;;;5.30;88.10;;;;;;6236318;23;20007;-63
2022/02/09 09:02:14;;;;;;;138.55;22.25;;;5.30;88.10;;;;;;6208037;23;20014;-62
2022/02/09 09:04:46;;;;;;;154.63;23.25;;;5.30;88.10;;;;;;6235066;23;20053;-62
2022/02/09 09:07:20;;;;;;;111.57;20.17;;;5.30;88.00;;;;;;6232567;23;20422;-60
2022/02/09 09:10:05;;;;;;;119.35;19.63;;;5.30;87.80;;;;;;6209659;23;20184;-63
2022/02/09 10:04:42;;;;;;;137.00;19.25;;;5.60;89.00;;;;;;6190521;23;20008;-61
2022/02/09 10:32:59;;;;;;;97.93;16.35;;;5.70;89.20;;;;;;6234290;23;20464;-61
2022/02/09 10:35:29;;;;;;;120.25;19.08;;;5.80;89.10;;;;;;6209852;23;20011;-63
2022/02/09 10:37:57;;;;;;;97.75;15.73;;;5.80;89.00;;;;;;6235729;23;20071;-61
2022/02/09 10:40:27;;;;;;;110.20;17.90;;;5.80;89.00;;;;;;6236072;23;20418;-63
2022/02/09 10:42:59;;;;;;;117.60;17.08;;;5.80;88.90;;;;;;6184086;23;20008;-63
2022/02/09 10:45:37;;;;;;;87.95;15.18;;;5.90;89.00;;;;;;6236609;23;20014;-62
2022/02/09 10:48:06;;;;;;;83.35;14.73;;;5.90;89.10;;;;;;6179724;23;20028;-61
2022/02/09 10:50:37;;;;;;;73.40;13.98;;;5.90;89.60;;;;;;6179686;23;20004;-62
2022/02/09 10:53:04;;;;;;;78.22;13.90;;;6.00;88.90;;;;;;6208860;23;20487;-62
2022/02/09 10:55:42;;;;;;;92.72;15.70;;;6.00;88.60;;;;;;6206997;23;20004;-62
2022/02/09 10:58:20;;;;;;;73.85;13.32;;;6.00;88.80;;;;;;6208447;23;20000;-61
2022/02/09 11:00:46;;;;;;;71.82;12.10;;;6.00;88.90;;;;;;6184946;23;20011;-61
2022/02/09 11:03:26;;;;;;;68.38;14.00;;;6.00;88.80;;;;;;6179398;23;20716;-62
2022/02/09 11:05:54;;;;;;;49.30;10.57;;;6.00;88.70;;;;;;6211071;23;20011;-62
2022/02/09 11:08:20;;;;;;;70.00;11.57;;;6.00;88.40;;;;;;6211995;23;20000;-62
2022/02/09 11:10:45;;;;;;;68.68;10.65;;;6.10;88.40;;;;;;6187010;23;20438;-61
2022/02/09 11:13:11;;;;;;;66.93;12.60;;;6.10;88.50;;;;;;6210015;23;20105;-61
2022/02/09 11:15:55;;;;;;;57.45;11.80;;;6.10;88.40;;;;;;6183502;23;20899;-64
2022/02/09 11:18:21;;;;;;;53.70;11.48;;;6.10;88.60;;;;;;6208289;23;20008;-62
2022/02/09 11:21:04;;;;;;;88.65;12.13;;;6.10;89.10;;;;;;6183263;23;20000;-62
2022/02/09 11:23:51;;;;;;;81.32;11.30;;;6.20;88.50;;;;;;6203773;23;20375;-63
2022/02/09 11:30:02;;;;;;;58.45;11.32;;;6.20;88.70;;;;;;6208170;23;20536;-63
2022/02/09 11:38:09;;;;;;;117.70;15.77;;;6.30;89.00;;;;;;6235989;23;20016;-60
2022/02/09 11:40:47;;;;;;;97.70;14.30;;;6.30;88.80;;;;;;6234866;23;20030;-62
2022/02/09 11:43:21;;;;;;;84.80;12.50;;;6.30;89.00;;;;;;6210629;23;20488;-61
2022/02/09 11:46:07;;;;;;;159.70;18.17;;;6.30;89.10;;;;;;6232234;23;20015;-61
2022/02/09 11:57:02;;;;;;;196.60;21.95;;;6.50;88.80;;;;;;6211779;23;20103;-63
2022/02/09 12:10:49;;;;;;;69.22;10.70;;;6.50;87.90;;;;;;6210006;23;20070;-61
2022/02/09 12:13:42;;;;;;;42.40;8.40;;;6.50;87.90;;;;;;6204470;23;19996;-61
2022/02/09 12:18:57;;;;;;;73.28;9.82;;;6.50;87.80;;;;;;6204137;23;20081;-61
2022/02/09 12:21:38;;;;;;;63.33;9.52;;;6.50;87.70;;;;;;6200864;23;20493;-62
2022/02/09 12:24:17;;;;;;;75.07;9.77;;;6.50;87.70;;;;;;6229980;23;20000;-61
2022/02/09 12:27:02;;;;;;;48.40;8.45;;;6.60;87.60;;;;;;6179064;23;20082;-62
2022/02/09 12:29:41;;;;;;;68.10;8.02;;;6.60;87.50;;;;;;6180325;23;20473;-63
2022/02/09 12:32:15;;;;;;;36.33;7.57;;;6.60;87.30;;;;;;6201615;23;20032;-61
2022/02/09 12:35:05;;;;;;;38.08;8.23;;;6.60;87.10;;;;;;6197462;23;20000;-62
2022/02/09 12:37:32;;;;;;;42.25;8.02;;;6.70;86.80;;;;;;6175989;23;20015;-61
2022/02/09 12:40:18;;;;;;;45.55;7.18;;;6.70;86.30;;;;;;6197372;23;20150;-61
2022/02/09 12:42:51;;;;;;;55.88;8.77;;;6.70;86.00;;;;;;6173693;23;20434;-62
2022/02/09 12:45:26;;;;;;;57.08;8.55;;;6.80;85.90;;;;;;6172908;23;20071;-61
2022/02/09 12:47:57;;;;;;;42.95;7.15;;;6.80;85.90;;;;;;6195562;23;20004;-62
2022/02/09 12:50:30;;;;;;;45.28;7.65;;;6.90;85.80;;;;;;6201343;23;19996;-61
2022/02/09 12:52:55;;;;;;;55.22;7.32;;;6.90;85.80;;;;;;6176681;23;20000;-61
2022/02/09 12:55:28;;;;;;;45.25;7.60;;;6.90;85.90;;;;;;6228352;23;20334;-64
2022/02/09 12:58:05;;;;;;;44.08;7.60;;;6.90;85.70;;;;;;6176394;23;20423;-63
2022/02/09 13:00:38;;;;;;;37.92;6.95;;;7.00;85.20;;;;;;6179901;23;20000;-62
2022/02/09 13:03:05;;;;;;;81.80;11.23;;;7.00;85.10;;;;;;6203286;23;20008;-62
2022/02/09 13:05:31;;;;;;;69.90;8.45;;;7.00;84.90;;;;;;6205116;23;20103;-61
2022/02/09 13:08:01;;;;;;;45.33;7.20;;;7.10;85.20;;;;;;6207877;23;20000;-61
2022/02/09 13:10:28;;;;;;;38.72;7.95;;;7.10;85.20;;;;;;6157216;23;20011;-61
2022/02/09 13:12:57;;;;;;;30.45;6.18;;;7.10;84.80;;;;;;6204817;23;20012;-64
2022/02/09 13:15:29;;;;;;;42.47;7.88;;;7.20;84.50;;;;;;6174484;23;20004;-61
2022/02/09 13:23:39;;;;;;;55.85;8.07;;;7.20;84.20;;;;;;6182786;23;20000;-63
2022/02/09 14:12:18;;;;;;;99.60;11.30;;;7.80;84.60;;;;;;6178568;23;20012;-60
2022/02/09 14:50:14;;;;;;;102.97;13.35;;;8.30;83.80;;;;;;6232001;23;20082;-59
2022/02/09 14:55:22;;;;;;;144.32;18.02;;;8.30;83.70;;;;;;6232903;23;20088;-62
2022/02/09 14:58:02;;;;;;;139.50;16.13;;;8.30;83.80;;;;;;6211862;23;20058;-59
2022/02/09 15:00:28;;;;;;;163.35;21.42;;;8.30;84.30;;;;;;6229756;23;20087;-62
2022/02/09 15:03:04;;;;;;;173.00;23.58;;;8.40;84.20;;;;;;6233344;23;20012;-63
2022/02/09 15:06:07;;;;;;;157.52;20.50;;;8.40;84.10;;;;;;6234057;23;20003;-61
2022/02/09 15:11:04;;;;;;;161.73;18.65;;;8.50;84.00;;;;;;6229190;23;20023;-61
2022/02/09 15:13:42;;;;;;;172.90;22.15;;;8.50;84.10;;;;;;6231471;23;20415;-59
2022/02/09 15:23:52;;;;;;;181.90;23.70;;;8.70;83.80;;;;;;6205340;23;20443;-60
2022/02/09 15:26:22;;;;;;;173.20;20.35;;;8.70;84.30;;;;;;6233197;23;20073;-61
2022/02/09 15:28:50;;;;;;;141.95;18.48;;;8.70;84.10;;;;;;6209769;23;20071;-60
2022/02/09 15:31:25;;;;;;;143.95;17.40;;;8.80;83.90;;;;;;6183285;23;20392;-61
2022/02/09 15:34:02;;;;;;;179.75;21.17;;;8.90;84.10;;;;;;6185971;23;20091;-61
2022/02/09 15:36:48;;;;;;;152.95;21.17;;;8.90;84.20;;;;;;6202542;23;20091;-62
2022/02/09 15:39:15;;;;;;;177.20;20.08;;;8.90;84.10;;;;;;6234115;23;20019;-61
2022/02/09 15:42:05;;;;;;;153.13;18.23;;;8.90;83.40;;;;;;6180698;23;20049;-62
2022/02/09 15:58:34;;;;;;;174.93;18.70;;;9.20;83.30;;;;;;6230000;23;20061;-61
2022/02/09 16:22:22;;;;;;;163.25;21.95;;;9.50;84.00;;;;;;6232124;23;20100;-62
2022/02/09 16:46:15;;;;;;;184.48;22.13;;;9.60;84.90;;;;;;6204653;23;20015;-63
2022/02/09 16:48:47;;;;;;;159.30;21.17;;;9.60;85.10;;;;;;6178160;23;20099;-59
2022/02/09 16:51:16;;;;;;;175.80;22.75;;;9.60;85.10;;;;;;6203415;23;20053;-60
2022/02/09 16:53:57;;;;;;;178.82;21.38;;;9.70;85.40;;;;;;6229222;23;20008;-61
2022/02/09 16:56:44;;;;;;;177.32;22.10;;;9.60;85.30;;;;;;6228441;23;20008;-62
2022/02/09 17:08:28;;;;;;;177.52;23.27;;;9.70;85.30;;;;;;6203081;23;20023;-59
2022/02/09 17:21:05;;;;;;;276.63;30.40;;;9.70;86.80;;;;;;6204737;23;20086;-60
2022/02/09 17:23:30;;;;;;;426.58;48.00;;;9.70;86.90;;;;;;6204206;23;20012;-60
2022/02/09 17:25:56;;;;;;;257.50;32.08;;;9.80;86.70;;;;;;6227493;23;20819;-59
2022/02/09 17:28:22;;;;;;;266.50;35.17;;;9.80;87.00;;;;;;6204251;23;20030;-59
2022/02/09 17:33:33;;;;;;;195.95;25.48;;;9.80;86.20;;;;;;6234093;23;20008;-59
2022/02/09 17:36:04;;;;;;;187.80;25.35;;;9.80;86.30;;;;;;6205046;23;20028;-60
2022/02/09 17:57:09;;;;;;;227.20;28.50;;;10.00;85.70;;;;;;6229027;23;20044;-62
2022/02/09 17:59:43;;;;;;;211.13;29.50;;;10.00;85.70;;;;;;6201650;23;20099;-59
2022/02/09 18:02:08;;;;;;;201.63;27.10;;;10.00;85.60;;;;;;6204847;23;20068;-61
2022/02/09 18:04:34;;;;;;;194.73;30.02;;;10.00;85.60;;;;;;6203304;23;20532;-60
2022/02/09 18:07:05;;;;;;;206.25;29.27;;;10.00;85.40;;;;;;6230697;23;20334;-59
2022/02/09 18:09:41;;;;;;;284.13;34.33;;;10.00;85.50;;;;;;6233990;23;20730;-62
2022/02/09 18:12:18;;;;;;;233.98;31.95;;;10.00;85.60;;;;;;6231410;23;20004;-63
2022/02/09 18:15:15;;;;;;;268.15;34.30;;;10.00;85.90;;;;;;6230718;23;20511;-62
2022/02/09 18:31:11;;;;;;;236.60;35.53;;;10.10;86.20;;;;;;6231814;23;20004;-60
2022/02/09 18:47:04;;;;;;;257.23;40.03;;;10.10;87.10;;;;;;6207472;23;20084;-61
2022/02/09 18:58:30;;;;;;;223.45;34.55;;;10.20;87.00;;;;;;6212649;23;20047;-60
2022/02/09 19:03:28;;;;;;;259.75;37.22;;;10.30;87.10;;;;;;6234963;23;20083;-64
2022/02/09 19:05:56;;;;;;;282.75;39.50;;;10.30;87.20;;;;;;6234176;23;20031;-60
2022/02/09 19:08:39;;;;;;;279.38;40.00;;;10.30;87.30;;;;;;6205583;23;20104;-63
2022/02/09 19:14:13;;;;;;;320.83;40.75;;;10.30;87.10;;;;;;6211922;23;20019;-63
2022/02/09 19:16:46;;;;;;;341.30;40.45;;;10.40;86.90;;;;;;6234460;23;20004;-63
2022/02/09 19:32:29;;;;;;;269.50;38.53;;;10.30;87.70;;;;;;6203281;23;20137;-60
2022/02/09 19:48:07;;;;;;;262.48;37.67;;;10.20;87.90;;;;;;6232116;23;20008;-59
2022/02/09 19:53:24;;;;;;;307.33;41.60;;;10.30;88.30;;;;;;6234022;23;20035;-58
2022/02/09 19:56:09;;;;;;;289.25;39.67;;;10.20;88.20;;;;;;6205489;23;20138;-60
2022/02/09 20:01:13;;;;;;;282.13;38.83;;;10.10;87.80;;;;;;6233413;23;20011;-61
2022/02/09 20:03:38;;;;;;;460.45;55.10;;;10.10;87.80;;;;;;6230825;23;20079;-62
2022/02/09 20:06:07;;;;;;;328.35;42.38;;;10.10;88.00;;;;;;6233268;23;20039;-60
2022/02/09 20:08:37;;;;;;;295.17;36.80;;;10.00;88.00;;;;;;6231372;23;20314;-58
2022/02/09 20:11:07;;;;;;;246.95;38.72;;;10.00;88.20;;;;;;6232143;23;20283;-64
2022/02/09 20:13:33;;;;;;;289.40;39.72;;;10.00;88.20;;;;;;6205584;23;20023;-59
2022/02/09 20:15:59;;;;;;;261.15;38.13;;;9.90;88.10;;;;;;6228974;23;20000;-59
2022/02/09 20:18:25;;;;;;;256.40;35.28;;;9.90;88.10;;;;;;6233265;23;20011;-59
2022/02/09 20:20:51;;;;;;;227.20;32.83;;;9.90;88.10;;;;;;6233160;23;19996;-61
2022/02/09 20:23:16;;;;;;;271.95;38.00;;;9.90;87.90;;;;;;6232857;23;20202;-62
2022/02/09 20:25:43;;;;;;;285.73;40.80;;;9.80;88.20;;;;;;6182750;23;20047;-61
2022/02/09 20:28:09;;;;;;;243.88;36.70;;;9.80;88.30;;;;;;6205751;23;20051;-60
2022/02/09 20:30:40;;;;;;;280.02;39.75;;;9.80;88.30;;;;;;6203054;23;20338;-59
2022/02/09 20:33:10;;;;;;;308.80;41.92;;;9.80;88.20;;;;;;6202679;23;20008;-61
2022/02/09 20:35:36;;;;;;;289.75;36.90;;;9.80;88.30;;;;;;6229735;23;20004;-61
2022/02/09 20:38:01;;;;;;;265.52;36.50;;;9.80;88.50;;;;;;6230613;23;20310;-59
2022/02/09 20:40:35;;;;;;;314.48;39.00;;;9.70;88.20;;;;;;6232481;23;20050;-62
2022/02/09 20:43:03;;;;;;;265.27;36.30;;;9.70;88.30;;;;;;6233294;23;20005;-59
2022/02/09 20:45:36;;;;;;;277.13;37.22;;;9.70;88.40;;;;;;6201975;23;20004;-59
2022/02/09 20:48:08;;;;;;;231.30;32.97;;;9.70;88.30;;;;;;6228757;23;20127;-60
2022/02/09 20:50:35;;;;;;;290.13;38.33;;;9.60;88.20;;;;;;6229972;23;20071;-59
2022/02/09 20:53:00;;;;;;;267.40;38.55;;;9.60;88.30;;;;;;6230745;23;20030;-62
2022/02/09 20:55:27;;;;;;;285.25;42.03;;;9.60;88.40;;;;;;6180576;23;20462;-60
2022/02/09 20:57:52;;;;;;;283.92;43.72;;;9.60;88.30;;;;;;6231744;23;20429;-59
2022/02/09 21:00:43;;;;;;;263.23;36.40;;;9.50;88.20;;;;;;6232928;23;20004;-60
2022/02/09 21:10:45;;;;;;;240.73;37.13;;;9.50;88.40;;;;;;6234456;23;20079;-61
2022/02/09 21:13:21;;;;;;;299.52;37.40;;;9.40;88.40;;;;;;6232265;23;20007;-60
2022/02/09 21:45:21;;;;;;;164.98;30.50;;;9.10;87.20;;;;;;6231498;23;20046;-60
2022/02/09 21:53:38;;;;;;;154.35;28.13;;;8.90;87.10;;;;;;6230135;23;20058;-60
2022/02/09 21:56:16;;;;;;;154.63;28.98;;;8.90;87.20;;;;;;6231572;23;20091;-62
2022/02/09 21:59:40;;;;;;;148.93;29.90;;;8.90;87.30;;;;;;6231287;23;20011;-61
2022/02/09 22:20:16;;;;;;;126.40;27.77;;;8.60;86.80;;;;;;6187996;23;20030;-62
2022/02/09 22:27:55;;;;;;;123.43;26.60;;;8.50;86.60;;;;;;5038654;28;20493;-60
2022/02/09 22:47:39;;;;;;;82.95;23.35;;;8.30;86.40;;;;;;5036745;28;20035;-61
2022/02/09 22:50:11;;;;;;;80.93;24.30;;;8.30;86.40;;;;;;5036785;28;20128;-60
2022/02/09 22:55:11;;;;;;;68.45;23.77;;;8.30;86.40;;;;;;5038152;28;20061;-62
2022/02/09 22:57:53;;;;;;;82.05;22.27;;;8.20;86.50;;;;;;5041170;28;20392;-61
2022/02/09 23:00:38;;;;;;;79.22;23.17;;;8.20;86.60;;;;;;5037559;28;20021;-63
2022/02/09 23:03:04;;;;;;;69.85;22.73;;;8.20;86.70;;;;;;5019552;28;20515;-63
2022/02/09 23:05:45;;;;;;;74.20;24.10;;;8.20;86.60;;;;;;5037138;28;20037;-62
